Time;durP1;ratioP1;P1;durP2;ratioP2;P2;SDS_P1;SDS_P2;PMS_P1;PMS_P2;Temp;Humidity;BMP_temperature;BMP_pressure;BME280_temperature;BME280_humidity;BME280_pressure;Samples;Min_cycle;Max_cycle;Signal;HPM_P1;HPM_P2
2023/03/23 00:00:53;;;;;;;4.05;1.30;;;;;;;15.15;50.27;99895.09;4158120;28;20048;-67
2023/03/23 00:02:55;;;;;;;7.32;1.67;;;;;;;15.12;50.47;99897.78;4176723;28;20045;-67
2023/03/23 00:04:57;;;;;;;4.43;1.35;;;;;;;15.16;50.23;99899.47;4155568;28;20042;-67
2023/03/23 00:07:00;;;;;;;3.70;1.52;;;;;;;15.17;50.91;99891.59;4169282;28;20119;-67
2023/03/23 00:09:04;;;;;;;5.68;1.55;;;;;;;15.17;51.10;99890.69;4162222;28;20033;-68
2023/03/23 00:11:07;;;;;;;4.65;1.52;;;;;;;15.21;50.93;99889.78;4154838;28;20041;-67
2023/03/23 00:13:10;;;;;;;3.50;1.42;;;;;;;15.15;50.42;99887.25;4171067;28;20037;-68
2023/03/23 00:15:16;;;;;;;2.17;1.33;;;;;;;15.21;50.70;99881.94;4173669;28;20409;-67
2023/03/23 00:17:18;;;;;;;1.90;1.17;;;;;;;15.13;51.31;99884.66;4169924;28;20060;-67
2023/03/23 00:19:20;;;;;;;4.55;1.65;;;;;;;15.13;51.02;99873.34;4162249;28;20042;-67
2023/03/23 00:21:25;;;;;;;2.50;1.45;;;;;;;15.15;51.35;99879.41;4162961;28;20084;-67
2023/03/23 00:23:28;;;;;;;1.77;1.40;;;;;;;15.14;51.78;99880.28;4167445;28;20060;-67
2023/03/23 00:25:31;;;;;;;4.22;1.65;;;;;;;15.09;51.17;99879.50;4171512;28;20120;-67
2023/03/23 00:27:33;;;;;;;2.80;1.50;;;;;;;15.15;50.37;99879.41;4172605;28;20424;-68
2023/03/23 00:29:35;;;;;;;4.18;1.65;;;;;;;15.20;50.61;99885.44;4143859;28;20406;-67
2023/03/23 00:31:37;;;;;;;2.97;1.65;;;;;;;15.12;51.19;99879.44;4142604;28;20583;-67
2023/03/23 00:33:40;;;;;;;2.03;1.40;;;;;;;15.09;50.38;99875.13;4162333;28;20049;-67
2023/03/23 00:35:44;;;;;;;2.90;1.42;;;;;;;15.10;50.32;99875.97;4171274;28;20045;-67
2023/03/23 00:37:46;;;;;;;1.70;1.07;;;;;;;15.10;51.34;99882.09;4172930;28;20255;-67
2023/03/23 00:39:48;;;;;;;3.28;1.23;;;;;;;15.06;51.39;99874.31;4162581;28;20029;-67
2023/03/23 00:41:51;;;;;;;1.23;1.13;;;;;;;15.11;50.71;99872.47;4148594;28;20044;-67
2023/03/23 00:43:53;;;;;;;2.92;1.40;;;;;;;15.08;51.10;99869.91;4148038;28;20037;-67
2023/03/23 00:45:56;;;;;;;2.33;1.33;;;;;;;15.09;50.55;99869.03;4154739;28;20037;-67
2023/03/23 00:48:01;;;;;;;3.45;1.58;;;;;;;15.05;50.06;99870.81;4158107;28;20033;-67
2023/03/23 00:50:07;;;;;;;2.75;1.48;;;;;;;15.11;49.97;99873.34;4158519;28;20531;-67
2023/03/23 00:52:11;;;;;;;3.67;1.50;;;;;;;15.11;49.59;99875.09;4167316;28;20128;-67
2023/03/23 00:54:13;;;;;;;2.92;1.60;;;;;;;15.09;49.80;99876.88;4165136;28;20539;-67
2023/03/23 00:56:17;;;;;;;3.30;1.58;;;;;;;15.08;50.41;99883.00;4147597;28;20038;-67
2023/03/23 00:58:20;;;;;;;4.03;1.23;;;;;;;15.06;49.98;99874.31;4173807;28;20463;-67
2023/03/23 01:00:23;;;;;;;3.15;1.35;;;;;;;15.09;50.93;99880.34;4185752;28;20333;-68
2023/03/23 01:02:25;;;;;;;5.38;1.52;;;;;;;15.05;50.95;99857.72;4149713;28;20105;-68
2023/03/23 01:04:31;;;;;;;3.35;1.45;;;;;;;15.06;50.38;99871.69;4149819;28;20034;-67
2023/03/23 01:06:38;;;;;;;1.98;1.20;;;;;;;15.10;50.61;99861.16;4162222;28;20051;-67
2023/03/23 01:08:45;;;;;;;1.30;1.10;;;;;;;15.08;50.48;99864.66;4161144;28;20057;-67
2023/03/23 01:10:47;;;;;;;2.30;1.20;;;;;;;15.01;50.70;99864.75;4176737;28;20447;-67
2023/03/23 01:12:49;;;;;;;2.00;1.10;;;;;;;15.04;51.17;99860.34;4154693;28;20038;-67
2023/03/23 01:14:52;;;;;;;1.23;1.10;;;;;;;15.11;50.04;99857.66;4152523;28;20041;-67
2023/03/23 01:16:54;;;;;;;2.95;1.58;;;;;;;15.04;50.66;99857.72;4154482;28;20041;-68
2023/03/23 01:18:56;;;;;;;2.45;1.17;;;;;;;15.06;50.14;99853.34;4146665;28;20038;-68
2023/03/23 01:21:03;;;;;;;2.25;1.42;;;;;;;15.04;50.27;99848.16;4152583;28;20045;-68
2023/03/23 01:23:06;;;;;;;2.25;1.40;;;;;;;15.01;50.79;99850.81;4172249;28;20055;-68
2023/03/23 01:25:10;;;;;;;3.40;1.00;;;;;;;15.00;51.06;99849.94;4168842;28;20148;-68
2023/03/23 01:27:12;;;;;;;4.35;1.15;;;;;;;15.02;51.01;99847.28;4168229;28;20044;-68
2023/03/23 01:29:14;;;;;;;3.28;1.60;;;;;;;15.07;50.66;99836.75;4159442;28;20037;-68
2023/03/23 01:31:20;;;;;;;2.95;1.27;;;;;;;15.01;50.12;99841.19;4162733;28;20044;-67
2023/03/23 01:33:22;;;;;;;3.60;1.38;;;;;;;15.07;50.56;99832.41;4176591;28;20048;-68
2023/03/23 01:35:23;;;;;;;3.30;1.23;;;;;;;15.01;51.43;99835.97;4168547;28;20041;-68
2023/03/23 01:37:28;;;;;;;3.85;1.30;;;;;;;14.98;50.57;99830.78;4152589;28;20050;-67
2023/03/23 01:39:31;;;;;;;1.73;1.10;;;;;;;15.05;50.78;99828.91;4147031;28;20383;-67
2023/03/23 01:41:35;;;;;;;1.95;1.27;;;;;;;14.99;50.26;99832.47;4147426;28;20046;-67
2023/03/23 01:43:58;;;;;;;3.40;1.48;;;;;;;14.97;50.35;99826.41;4144804;28;20197;-67
2023/03/23 01:46:01;;;;;;;4.32;1.30;;;;;;;14.95;50.27;99817.72;4162767;28;20053;-67
2023/03/23 01:48:10;;;;;;;2.42;1.42;;;;;;;14.98;50.10;99812.44;4163478;28;20493;-67
2023/03/23 01:50:12;;;;;;;4.70;1.35;;;;;;;14.94;50.33;99813.38;4150343;28;20112;-67
2023/03/23 01:52:21;;;;;;;3.97;1.27;;;;;;;14.94;50.90;99818.59;4169795;28;20381;-67
2023/03/23 01:54:25;;;;;;;1.48;1.10;;;;;;;14.95;51.02;99809.88;4150959;28;20042;-67
2023/03/23 01:56:32;;;;;;;4.55;1.48;;;;;;;14.91;51.22;99800.34;4149722;28;20077;-67
2023/03/23 01:58:39;;;;;;;1.88;1.17;;;;;;;14.81;51.94;99796.13;4147417;28;20042;-67
2023/03/23 02:00:42;;;;;;;2.22;1.42;;;;;;;14.76;51.04;99798.81;4154741;28;20511;-67
2023/03/23 02:02:46;;;;;;;3.10;1.40;;;;;;;14.80;51.73;99802.22;4157590;28;20042;-67
2023/03/23 02:04:52;;;;;;;1.67;1.15;;;;;;;14.83;50.68;99810.91;4163779;28;20546;-68
2023/03/23 02:06:56;;;;;;;1.65;1.25;;;;;;;14.88;51.63;99807.34;4148229;28;20033;-67
2023/03/23 02:08:59;;;;;;;2.78;1.25;;;;;;;14.84;50.99;99817.00;4134261;28;20520;-68
2023/03/23 02:11:01;;;;;;;2.58;1.13;;;;;;;14.81;51.85;99814.44;4127860;28;21850;-69
2023/03/23 02:13:07;;;;;;;2.15;0.90;;;;;;;14.78;51.59;99815.34;4163576;28;20077;-67
2023/03/23 02:15:10;;;;;;;2.42;1.33;;;;;;;14.77;50.84;99817.97;4156056;28;20468;-67
2023/03/23 02:17:22;;;;;;;2.03;1.20;;;;;;;14.73;51.42;99824.97;4155394;28;20092;-67
2023/03/23 02:19:47;;;;;;;3.13;1.20;;;;;;;14.64;51.25;99820.72;4168687;28;20040;-68
2023/03/23 02:22:17;;;;;;;1.50;1.10;;;;;;;14.65;51.76;99819.00;4153407;28;20154;-67
2023/03/23 02:24:52;;;;;;;3.80;1.13;;;;;;;14.76;50.71;99819.75;4143642;28;20045;-68
2023/03/23 02:27:00;;;;;;;1.73;1.30;;;;;;;14.77;51.82;99810.13;4172904;28;20040;-68
2023/03/23 02:29:22;;;;;;;5.22;1.42;;;;;;;14.77;51.19;99812.75;4169996;28;20115;-68
2023/03/23 02:31:42;;;;;;;3.33;1.20;;;;;;;14.78;51.88;99802.25;4166528;28;20038;-67
2023/03/23 02:33:50;;;;;;;1.75;1.20;;;;;;;14.78;52.83;99801.41;4155184;28;20041;-68
2023/03/23 02:35:57;;;;;;;1.92;1.17;;;;;;;14.78;52.19;99798.78;4161627;28;20045;-67
2023/03/23 02:38:03;;;;;;;2.28;1.20;;;;;;;14.70;52.10;99788.41;4159572;28;20038;-68
2023/03/23 02:40:11;;;;;;;3.13;1.30;;;;;;;14.68;52.89;99791.94;4184425;22;20037;-70
2023/03/23 02:42:16;;;;;;;2.15;1.23;;;;;;;14.62;53.14;99780.66;4143772;28;20599;-68
2023/03/23 02:44:19;;;;;;;1.33;1.17;;;;;;;14.66;53.36;99777.13;4143055;28;20038;-67
2023/03/23 02:46:22;;;;;;;2.92;1.17;;;;;;;14.67;52.77;99775.34;4129460;28;20077;-68
2023/03/23 02:48:31;;;;;;;1.73;1.23;;;;;;;14.71;52.79;99768.34;4140819;28;20038;-68
2023/03/23 02:50:36;;;;;;;5.03;1.20;;;;;;;14.63;53.03;99768.44;4139597;28;20551;-68
2023/03/23 02:52:44;;;;;;;3.45;1.10;;;;;;;14.62;53.65;99767.59;4144809;28;20042;-68
2023/03/23 02:54:49;;;;;;;2.55;1.35;;;;;;;14.62;52.99;99770.19;4128106;28;20051;-69
2023/03/23 02:56:51;;;;;;;;;;;;;;;14.58;53.46;99772.84;4142859;28;20104;-68
2023/03/23 02:58:58;;;;;;;3.70;1.15;;;;;;;14.60;53.88;99765.84;4129837;28;19926;-67
2023/03/23 03:01:00;;;;;;;2.65;1.10;;;;;;;14.61;53.01;99772.81;4128538;28;20031;-68
2023/03/23 03:03:05;;;;;;;2.92;1.23;;;;;;;14.62;53.64;99772.81;4129286;28;20038;-68
2023/03/23 03:05:16;;;;;;;1.58;1.15;;;;;;;14.69;53.40;99772.72;4128599;28;20425;-68
2023/03/23 03:07:35;;;;;;;2.70;1.70;;;;;;;14.68;52.48;99768.41;4143932;28;20038;-68
2023/03/23 03:09:43;;;;;;;3.35;1.30;;;;;;;14.64;52.87;99770.19;4144078;28;20038;-68
2023/03/23 03:11:49;;;;;;;1.50;1.13;;;;;;;14.63;52.75;99760.59;4119386;28;20042;-68
2023/03/23 03:13:55;;;;;;;3.47;1.50;;;;;;;14.65;52.37;99757.06;4144667;28;20046;-69
2023/03/23 03:16:01;;;;;;;2.38;1.20;;;;;;;14.69;52.43;99755.28;4128220;28;20101;-69
2023/03/23 03:18:11;;;;;;;2.97;1.50;;;;;;;14.69;52.26;99749.19;4124788;28;20049;-69
2023/03/23 03:20:15;;;;;;;2.80;1.38;;;;;;;14.64;51.77;99752.72;4132122;28;20117;-69
2023/03/23 03:22:18;;;;;;;2.67;1.35;;;;;;;14.69;51.99;99759.63;4129921;28;20557;-69
2023/03/23 03:24:24;;;;;;;4.38;1.70;;;;;;;14.62;52.27;99766.72;4108540;28;20051;-69
2023/03/23 03:26:28;;;;;;;5.78;1.50;;;;;;;14.64;51.70;99762.31;4123277;28;20038;-70
2023/03/23 03:28:34;;;;;;;3.65;1.60;;;;;;;14.65;51.96;99762.31;4145908;28;20038;-69
2023/03/23 03:30:39;;;;;;;7.28;1.70;;;;;;;14.68;51.20;99763.16;4123433;28;20129;-69
2023/03/23 03:32:48;;;;;;;2.63;1.30;;;;;;;14.76;51.55;99756.06;4124281;28;20039;-69
2023/03/23 03:34:52;;;;;;;3.60;1.38;;;;;;;14.72;51.13;99751.75;4128582;28;20038;-70
2023/03/23 03:36:58;;;;;;;3.22;1.55;;;;;;;14.80;51.07;99752.50;4144433;28;20048;-69
2023/03/23 03:39:03;;;;;;;4.85;2.08;;;;;;;14.73;50.79;99771.81;4124453;28;20057;-69
2023/03/23 03:41:06;;;;;;;;;;;;;;;14.78;50.73;99759.53;4113472;28;20406;-69
2023/03/23 03:43:08;;;;;;;2.97;1.45;;;;;;;14.76;50.72;99758.66;4106369;28;20365;-69
2023/03/23 03:45:13;;;;;;;2.35;1.63;;;;;;;14.87;51.31;99756.78;4160649;28;20040;-68
2023/03/23 03:47:14;;;;;;;;;;;;;;;14.79;51.29;99761.25;4128189;28;20117;-69
2023/03/23 03:49:16;;;;;;;2.72;1.38;;;;;;;14.80;51.70;99757.75;4128712;28;20313;-68
2023/03/23 03:51:18;;;;;;;1.98;1.23;;;;;;;14.87;51.71;99769.00;4113342;28;20038;-68
2023/03/23 03:53:25;;;;;;;3.60;1.55;;;;;;;14.84;51.38;99762.91;4112577;28;20050;-69
2023/03/23 03:55:27;;;;;;;2.85;1.60;;;;;;;14.90;50.72;99756.72;4122779;28;20510;-69
2023/03/23 03:57:31;;;;;;;3.55;1.40;;;;;;;14.95;50.39;99759.25;4137477;28;20038;-69
2023/03/23 03:59:40;;;;;;;2.55;1.42;;;;;;;14.92;51.05;99754.97;4141098;28;20466;-69
2023/03/23 04:02:03;;;;;;;3.75;1.27;;;;;;;14.94;50.70;99760.19;4139970;28;20133;-69
2023/03/23 04:04:06;;;;;;;3.25;2.00;;;;;;;14.90;51.28;99764.56;4129393;28;20106;-68
2023/03/23 04:06:12;;;;;;;3.63;1.58;;;;;;;14.91;51.38;99761.06;4122337;28;20133;-68
2023/03/23 04:08:14;;;;;;;3.10;1.50;;;;;;;14.91;51.19;99766.31;4132564;28;20112;-68
2023/03/23 04:10:21;;;;;;;1.73;1.30;;;;;;;14.95;51.24;99768.00;4128112;28;20038;-68
2023/03/23 04:12:24;;;;;;;2.78;1.48;;;;;;;14.97;51.25;99763.59;4128583;28;20056;-69
2023/03/23 04:14:34;;;;;;;2.88;1.75;;;;;;;14.98;51.44;99767.06;4144874;28;20498;-69
2023/03/23 04:16:35;;;;;;;4.88;2.08;;;;;;;14.96;51.16;99774.94;4128932;28;20121;-68
2023/03/23 04:18:38;;;;;;;6.22;1.70;;;;;;;14.90;51.53;99768.94;4139072;28;20038;-68
2023/03/23 04:20:40;;;;;;;2.65;1.25;;;;;;;14.87;50.81;99774.25;4139856;28;20034;-69
2023/03/23 04:22:44;;;;;;;1.90;1.27;;;;;;;14.87;51.69;99772.47;4138177;28;20085;-68
2023/03/23 04:24:47;;;;;;;6.10;1.55;;;;;;;14.95;52.59;99781.09;4143973;28;20128;-68
2023/03/23 04:26:54;;;;;;;3.65;1.67;;;;;;;14.96;52.18;99780.19;4145023;28;20050;-68
2023/03/23 04:29:02;;;;;;;2.38;1.58;;;;;;;14.92;52.92;99783.75;4126103;28;20038;-68
2023/03/23 04:31:28;;;;;;;3.35;1.85;;;;;;;14.89;52.50;99783.78;4139212;28;20050;-69
2023/03/23 04:33:40;;;;;;;3.92;1.90;;;;;;;14.83;53.16;99783.88;4127936;28;20050;-69
2023/03/23 04:35:45;;;;;;;3.22;1.60;;;;;;;14.81;53.28;99783.03;4145685;28;20088;-69
2023/03/23 04:37:51;;;;;;;4.30;1.83;;;;;;;14.84;53.27;99790.84;4144216;28;20041;-69
2023/03/23 04:39:59;;;;;;;4.13;1.60;;;;;;;14.86;54.11;99799.53;4126927;28;20039;-69
2023/03/23 04:42:02;;;;;;;2.95;1.70;;;;;;;14.90;53.89;99795.13;4128049;28;20042;-69
2023/03/23 04:44:22;;;;;;;2.38;1.50;;;;;;;14.82;53.88;99787.34;4158872;28;20124;-69
2023/03/23 04:46:38;;;;;;;3.90;1.70;;;;;;;14.80;54.18;99799.63;4137903;28;20112;-69
2023/03/23 04:48:46;;;;;;;3.45;1.63;;;;;;;14.74;54.73;99794.47;4137448;28;20041;-70
2023/03/23 04:50:55;;;;;;;3.53;2.08;;;;;;;14.76;55.27;99797.91;4144465;28;20030;-68
2023/03/23 04:53:04;;;;;;;3.13;1.77;;;;;;;14.69;56.19;99801.50;4125728;28;20062;-69
2023/03/23 04:55:08;;;;;;;5.23;1.80;;;;;;;14.61;56.20;99805.09;4110921;28;20494;-69
2023/03/23 04:57:12;;;;;;;;;;;;;;;14.49;56.16;99807.84;4143736;28;20722;-69
2023/03/23 04:59:18;;;;;;;4.13;2.15;;;;;;;14.45;56.08;99804.38;4142973;28;19929;-69
2023/03/23 05:02:00;;;;;;;3.90;1.85;;;;;;;14.47;56.63;99815.69;4130442;28;20077;-69
2023/03/23 05:04:03;;;;;;;;;;;;;;;14.37;56.47;99808.84;4140541;28;20057;-69
2023/03/23 05:06:06;;;;;;;6.53;1.92;;;;;;;14.36;56.26;99814.09;4126790;28;19985;-68
2023/03/23 05:08:10;;;;;;;3.50;1.90;;;;;;;14.37;56.29;99811.47;4116422;28;20042;-69
2023/03/23 05:10:16;;;;;;;2.75;1.65;;;;;;;14.38;57.88;99817.56;4124127;28;20050;-69
2023/03/23 05:12:18;;;;;;;2.47;1.60;;;;;;;14.37;57.48;99815.81;4122420;28;20031;-68
2023/03/23 05:14:33;;;;;;;;;;;;;;;14.22;57.12;99822.97;4129153;28;20517;-68
2023/03/23 05:16:48;;;;;;;3.20;1.63;;;;;;;14.22;56.79;99822.09;4138049;28;19932;-68
2023/03/23 05:18:52;;;;;;;4.10;2.00;;;;;;;14.29;57.00;99824.63;4120916;28;20557;-68
2023/03/23 05:20:54;;;;;;;2.90;1.83;;;;;;;14.28;56.61;99817.66;4136022;28;20042;-67
2023/03/23 05:22:59;;;;;;;4.22;2.03;;;;;;;14.38;57.37;99823.63;4129035;28;20038;-68
2023/03/23 05:25:10;;;;;;;3.15;1.95;;;;;;;14.39;57.33;99819.28;4116806;28;20118;-68
2023/03/23 05:27:17;;;;;;;2.78;1.95;;;;;;;14.44;56.83;99828.81;4147436;28;20037;-68
2023/03/23 05:29:23;;;;;;;3.42;1.80;;;;;;;14.38;56.90;99825.41;4147404;28;20088;-68
2023/03/23 05:31:32;;;;;;;2.42;1.45;;;;;;;14.43;55.65;99827.06;4147427;28;20217;-67
2023/03/23 05:33:34;;;;;;;5.15;1.60;;;;;;;14.44;56.61;99822.69;4146427;28;20030;-68
2023/03/23 05:35:48;;;;;;;2.83;1.55;;;;;;;14.43;56.18;99826.22;4147454;28;20161;-68
2023/03/23 05:37:53;;;;;;;2.67;1.50;;;;;;;14.38;55.40;99833.25;4131522;28;20525;-69
2023/03/23 05:39:55;;;;;;;3.20;1.25;;;;;;;14.42;55.75;99824.47;4146869;28;20073;-69
2023/03/23 05:42:15;;;;;;;3.13;1.80;;;;;;;14.44;55.45;99827.94;4120732;28;20045;-69
2023/03/23 05:44:26;;;;;;;2.22;1.48;;;;;;;14.42;55.35;99827.09;4134961;28;20042;-69
2023/03/23 05:46:32;;;;;;;3.58;1.38;;;;;;;14.44;55.77;99817.47;4136441;28;20133;-69
2023/03/23 05:48:36;;;;;;;2.67;1.45;;;;;;;14.43;55.89;99821.84;4139949;28;20140;-68
2023/03/23 05:50:38;;;;;;;4.03;1.70;;;;;;;14.46;55.48;99823.56;4121388;28;20433;-68
2023/03/23 05:52:41;;;;;;;4.50;1.23;;;;;;;14.44;55.42;99833.16;4129338;28;20049;-68
2023/03/23 05:54:46;;;;;;;2.30;1.48;;;;;;;14.43;55.73;99828.84;4124985;28;20466;-69
2023/03/23 05:56:48;;;;;;;2.08;1.50;;;;;;;14.41;55.77;99828.84;4126699;28;20046;-68
2023/03/23 05:59:10;;;;;;;3.17;1.90;;;;;;;14.44;55.37;99848.84;4133386;28;20539;-68
2023/03/23 06:01:13;;;;;;;2.78;1.65;;;;;;;14.46;55.34;99849.72;4115123;28;20073;-68
2023/03/23 06:03:16;;;;;;;2.53;1.65;;;;;;;14.53;54.97;99856.63;4107775;28;20066;-69
2023/03/23 06:05:32;;;;;;;3.15;1.70;;;;;;;14.56;55.52;99847.84;4128999;28;20049;-68
2023/03/23 06:07:35;;;;;;;3.75;1.50;;;;;;;14.48;55.09;99855.78;4122846;28;20035;-68
2023/03/23 06:09:42;;;;;;;4.85;1.70;;;;;;;14.44;55.31;99856.69;4116468;28;20039;-69
2023/03/23 06:12:05;;;;;;;3.20;1.48;;;;;;;14.45;55.19;99851.44;4128158;28;20529;-69
2023/03/23 06:14:27;;;;;;;3.58;2.08;;;;;;;14.49;55.42;99858.38;4128695;28;20073;-69
2023/03/23 06:16:30;;;;;;;3.97;1.48;;;;;;;14.53;56.00;99851.38;4125001;28;20101;-69
2023/03/23 06:18:36;;;;;;;2.70;1.50;;;;;;;14.53;56.76;99859.22;4143467;28;20147;-68
2023/03/23 06:20:54;;;;;;;2.85;1.60;;;;;;;14.53;55.66;99853.13;4110530;28;20034;-69
2023/03/23 06:23:17;;;;;;;4.95;1.98;;;;;;;14.53;56.53;99866.19;4131438;28;20058;-68
2023/03/23 06:25:21;;;;;;;2.78;1.80;;;;;;;14.57;56.24;99858.31;4119947;28;20526;-68
2023/03/23 06:27:23;;;;;;;4.40;1.70;;;;;;;14.61;56.06;99861.75;4120180;28;20065;-68
2023/03/23 06:29:25;;;;;;;4.88;1.75;;;;;;;14.56;55.99;99855.69;4113850;28;20419;-68
2023/03/23 06:31:30;;;;;;;2.70;1.20;;;;;;;14.59;56.73;99855.69;4111267;28;20035;-68
2023/03/23 06:33:33;;;;;;;2.42;1.42;;;;;;;14.61;56.55;99865.25;4121333;28;20433;-69
2023/03/23 06:35:58;;;;;;;4.18;1.48;;;;;;;14.58;56.45;99864.41;4095513;28;20541;-68
2023/03/23 06:38:24;;;;;;;2.13;1.20;;;;;;;14.52;55.60;99874.94;4120280;28;20047;-68
2023/03/23 06:40:31;;;;;;;2.45;1.60;;;;;;;14.57;56.36;99865.28;4126405;28;20458;-67
2023/03/23 06:42:33;;;;;;;2.47;1.70;;;;;;;14.59;56.83;99868.75;4130052;28;20058;-68
2023/03/23 06:44:58;;;;;;;2.40;1.50;;;;;;;14.60;56.11;99863.50;4113704;28;20053;-68
2023/03/23 06:47:01;;;;;;;2.08;1.50;;;;;;;14.53;55.34;99874.94;4130282;28;20052;-68
2023/03/23 06:49:09;;;;;;;3.28;1.50;;;;;;;14.62;55.21;99880.06;4125259;28;20109;-68
2023/03/23 06:51:20;;;;;;;2.50;1.15;;;;;;;14.62;55.83;99885.31;4140782;28;20505;-69
2023/03/23 06:53:26;;;;;;;3.80;1.42;;;;;;;14.61;54.78;99882.66;4130399;28;20395;-69
2023/03/23 06:55:32;;;;;;;1.80;1.17;;;;;;;14.62;56.10;99890.53;4123519;28;20437;-68
2023/03/23 06:57:34;;;;;;;2.90;1.45;;;;;;;14.51;55.79;99900.22;4123138;28;20510;-68
2023/03/23 06:59:35;;;;;;;2.60;1.42;;;;;;;14.42;55.38;99901.19;4146626;28;20038;-69
2023/03/23 07:01:38;;;;;;;2.13;1.23;;;;;;;14.38;56.25;99906.47;4129848;28;20038;-68
2023/03/23 07:03:40;;;;;;;2.55;1.45;;;;;;;14.31;55.73;99919.59;4129213;28;20081;-69
2023/03/23 07:05:47;;;;;;;3.60;1.40;;;;;;;14.37;56.17;99913.44;4129815;28;20077;-68
2023/03/23 07:07:49;;;;;;;12.23;2.60;;;;;;;14.37;56.15;99930.88;4142608;28;20125;-69
2023/03/23 07:10:00;;;;;;;10.85;2.67;;;;;;;14.34;56.15;99926.56;4127672;28;20101;-69
2023/03/23 07:12:03;;;;;;;9.18;2.35;;;;;;;14.37;56.51;99923.03;4105039;28;20046;-68
2023/03/23 07:14:11;;;;;;;10.20;2.22;;;;;;;14.36;57.11;99923.94;4113465;28;20054;-69
2023/03/23 07:16:16;;;;;;;8.63;2.20;;;;;;;14.31;57.47;99931.81;4125910;28;20409;-69
2023/03/23 07:18:18;;;;;;;6.47;2.00;;;;;;;14.27;57.01;99941.44;4122917;28;20458;-68
2023/03/23 07:20:23;;;;;;;7.43;2.33;;;;;;;14.31;57.13;99937.06;4126495;28;20093;-69
2023/03/23 07:22:25;;;;;;;8.18;2.08;;;;;;;14.32;57.12;99931.81;4130382;28;20062;-69
2023/03/23 07:24:35;;;;;;;11.23;1.83;;;;;;;14.26;58.04;99929.22;4130401;28;20042;-69
2023/03/23 07:26:49;;;;;;;9.30;1.83;;;;;;;14.25;58.28;99939.69;4129761;28;20070;-69
2023/03/23 07:28:52;;;;;;;8.63;2.13;;;;;;;14.42;57.82;99937.78;4128551;28;20034;-68
2023/03/23 07:30:59;;;;;;;11.43;2.00;;;;;;;14.25;58.42;99948.44;4136878;28;20072;-68
2023/03/23 07:33:05;;;;;;;18.30;1.88;;;;;;;14.19;58.22;99939.75;4143115;28;20416;-69
2023/03/23 07:35:08;;;;;;;5.47;1.77;;;;;;;14.28;59.10;99939.66;4127779;28;20042;-68
2023/03/23 07:37:20;;;;;;;7.38;1.48;;;;;;;14.24;58.99;99951.06;4125085;28;20050;-69
2023/03/23 07:39:24;;;;;;;13.77;2.03;;;;;;;14.16;59.05;99945.88;4127603;28;20046;-69
2023/03/23 07:41:29;;;;;;;9.60;2.15;;;;;;;14.17;59.05;99950.25;4112131;28;20094;-69
2023/03/23 07:43:33;;;;;;;4.50;1.30;;;;;;;14.11;59.59;99950.28;4110372;28;20380;-69
2023/03/23 07:45:46;;;;;;;11.48;1.67;;;;;;;14.07;60.27;99961.66;4143712;28;20053;-69
2023/03/23 07:47:50;;;;;;;13.55;2.22;;;;;;;14.09;60.26;99962.50;4143520;28;20046;-69
2023/03/23 07:49:52;;;;;;;4.43;1.50;;;;;;;14.00;59.56;99963.44;4144476;28;20088;-69
2023/03/23 07:52:10;;;;;;;6.65;1.23;;;;;;;13.96;60.47;99975.66;4138374;28;20100;-69
2023/03/23 07:54:14;;;;;;;4.55;1.20;;;;;;;14.00;60.09;99973.03;4143384;28;20132;-69
2023/03/23 07:56:39;;;;;;;8.75;1.55;;;;;;;13.96;60.44;99977.44;4130462;28;20064;-69
2023/03/23 07:59:02;;;;;;;6.50;1.63;;;;;;;14.00;60.47;99973.03;4142562;28;20058;-69
2023/03/23 08:01:06;;;;;;;11.73;2.10;;;;;;;13.96;60.71;99960.00;4144555;28;20144;-68
2023/03/23 08:03:09;;;;;;;4.78;1.30;;;;;;;13.95;60.88;99970.47;4127392;28;20042;-69
2023/03/23 08:05:23;;;;;;;6.40;1.88;;;;;;;13.91;61.29;99966.97;4141499;28;21457;-69
2023/03/23 08:07:44;;;;;;;6.25;1.25;;;;;;;13.92;61.03;99975.72;4137631;28;20060;-69
2023/03/23 08:10:18;;;;;;;10.02;2.25;;;;;;;13.88;61.43;99980.06;4129675;28;20042;-69
2023/03/23 08:12:59;;;;;;;7.15;1.35;;;;;;;13.72;61.58;99975.84;4140933;28;20120;-69
2023/03/23 08:15:21;;;;;;;9.25;1.80;;;;;;;13.68;61.93;99990.69;4139885;28;20520;-69
2023/03/23 08:17:47;;;;;;;6.53;1.60;;;;;;;13.81;61.55;99985.38;4133191;28;20037;-69
2023/03/23 08:20:09;;;;;;;2.25;1.30;;;;;;;13.77;61.97;99992.38;4133847;28;20042;-69
2023/03/23 08:22:26;;;;;;;5.82;1.33;;;;;;;13.86;61.46;99994.06;4156837;28;20083;-69
2023/03/23 08:24:41;;;;;;;3.60;1.00;;;;;;;13.73;61.83;99986.28;4145159;28;20038;-69
2023/03/23 08:27:09;;;;;;;3.20;1.30;;;;;;;13.78;61.75;99988.84;4137707;28;20061;-68
2023/03/23 08:29:45;;;;;;;2.80;1.00;;;;;;;13.73;62.46;99996.72;4137264;28;20042;-69
2023/03/23 08:32:06;;;;;;;4.50;1.15;;;;;;;13.82;62.36;99993.19;4142798;28;20104;-68
2023/03/23 08:34:22;;;;;;;5.53;1.30;;;;;;;13.92;62.09;100000.09;4143843;28;20042;-68
2023/03/23 08:36:43;;;;;;;1.77;1.33;;;;;;;13.87;62.28;100008.84;4128765;28;20038;-69
2023/03/23 08:39:22;;;;;;;2.00;1.10;;;;;;;13.81;62.37;100009.72;4120606;28;20459;-69
2023/03/23 08:41:56;;;;;;;1.90;1.10;;;;;;;13.82;62.13;100002.78;4107106;28;20054;-69
2023/03/23 08:44:16;;;;;;;4.50;1.45;;;;;;;13.77;62.66;100006.28;4142341;28;20437;-69
2023/03/23 08:46:47;;;;;;;1.88;1.27;;;;;;;13.81;62.62;100007.13;4145567;28;20072;-69
2023/03/23 08:49:04;;;;;;;1.95;1.20;;;;;;;13.84;63.31;100014.94;4143590;28;20097;-69
2023/03/23 08:51:41;;;;;;;4.40;1.42;;;;;;;13.93;63.36;100008.78;4132795;28;20049;-69
2023/03/23 08:53:52;;;;;;;2.92;1.45;;;;;;;13.78;63.93;100004.53;4128323;28;20049;-69
2023/03/23 08:55:57;;;;;;;3.38;1.20;;;;;;;13.72;64.32;100007.19;4142798;28;20038;-68
2023/03/23 08:58:17;;;;;;;5.95;1.52;;;;;;;13.82;64.37;100006.25;4147453;28;20072;-69
2023/03/23 09:00:32;;;;;;;5.00;2.17;;;;;;;13.78;63.93;100001.91;4148637;28;20049;-69
2023/03/23 09:02:48;;;;;;;5.05;1.58;;;;;;;13.90;63.83;100008.81;4147229;28;20489;-69
2023/03/23 09:04:54;;;;;;;2.25;1.33;;;;;;;13.93;63.10;100017.50;4131613;28;20060;-69
2023/03/23 09:07:12;;;;;;;3.10;1.27;;;;;;;13.84;62.84;100009.72;4131649;28;20457;-69
2023/03/23 09:09:14;;;;;;;2.53;1.40;;;;;;;13.94;62.79;100020.97;4141016;28;20042;-69
2023/03/23 09:11:15;;;;;;;3.22;1.20;;;;;;;13.98;62.03;100019.22;4144475;28;20044;-69
2023/03/23 09:13:17;;;;;;;2.70;0.93;;;;;;;14.10;61.04;100019.13;4129452;28;20038;-69
2023/03/23 09:15:20;;;;;;;4.40;1.20;;;;;;;14.14;60.86;100015.63;4149556;28;20050;-69
2023/03/23 09:17:22;;;;;;;2.83;1.13;;;;;;;14.22;60.70;100023.41;4132743;28;20117;-69
2023/03/23 09:19:23;;;;;;;3.58;1.70;;;;;;;14.29;61.31;100028.59;4149123;28;20050;-69
2023/03/23 09:21:26;;;;;;;6.35;1.52;;;;;;;14.39;60.79;100036.34;4132690;28;20493;-69
2023/03/23 09:23:29;;;;;;;8.15;1.83;;;;;;;14.56;60.13;100037.06;4147420;28;20034;-69
2023/03/23 09:25:32;;;;;;;5.15;2.10;;;;;;;14.56;59.54;100034.44;4140610;28;20077;-69
2023/03/23 09:27:34;;;;;;;6.55;1.50;;;;;;;14.53;59.53;100037.09;4147236;28;20057;-69
2023/03/23 09:29:36;;;;;;;3.30;0.93;;;;;;;14.52;58.73;100048.44;4126254;28;20046;-69
2023/03/23 09:31:39;;;;;;;1.60;0.90;;;;;;;14.62;58.63;100051.88;4149132;28;20500;-69
2023/03/23 09:33:41;;;;;;;1.40;1.10;;;;;;;14.61;58.27;100056.22;4147593;28;20046;-69
2023/03/23 09:35:43;;;;;;;2.10;1.30;;;;;;;14.68;58.09;100045.72;4145263;28;20417;-69
2023/03/23 09:38:12;;;;;;;4.90;1.33;;;;;;;14.68;58.69;100057.03;4144989;28;20108;-68
2023/03/23 09:40:19;;;;;;;2.30;1.20;;;;;;;14.56;58.97;100052.75;4142380;28;20046;-70
2023/03/23 09:42:38;;;;;;;4.43;1.25;;;;;;;14.55;58.76;100061.47;4143864;28;20512;-69
2023/03/23 09:44:55;;;;;;;3.78;1.50;;;;;;;14.49;59.18;100057.16;4145749;28;20041;-69
2023/03/23 09:47:02;;;;;;;2.05;1.23;;;;;;;14.39;60.20;100057.25;4145602;28;20029;-69
2023/03/23 09:49:11;;;;;;;2.42;1.45;;;;;;;14.32;61.34;100065.16;4144557;28;20145;-69
2023/03/23 09:51:25;;;;;;;3.90;1.70;;;;;;;14.23;61.37;100067.81;4146946;28;20041;-69
2023/03/23 09:53:36;;;;;;;4.45;1.60;;;;;;;14.21;61.75;100059.13;4146353;28;20066;-68
2023/03/23 09:55:39;;;;;;;2.20;1.20;;;;;;;14.23;62.25;100054.75;4131480;28;20136;-69
2023/03/23 09:57:47;;;;;;;2.17;1.30;;;;;;;14.30;61.79;100058.19;4132228;28;20065;-69
2023/03/23 09:59:57;;;;;;;5.13;1.60;;;;;;;14.34;61.77;100059.03;4143875;28;20046;-69
2023/03/23 10:02:11;;;;;;;8.07;2.42;;;;;;;14.50;61.88;100058.06;4146134;28;20048;-69
2023/03/23 10:04:20;;;;;;;5.03;2.00;;;;;;;14.45;61.81;100060.69;4143521;28;20116;-69